Time;durP1;ratioP1;P1;durP2;ratioP2;P2;SDS_P1;SDS_P2;PMS_P1;PMS_P2;Temp;Humidity;BMP_temperature;BMP_pressure;BME280_temperature;BME280_humidity;BME280_pressure;Samples;Min_cycle;Max_cycle;Signal;HPM_P1;HPM_P2
2022/12/01 00:01:00;;;;;;;20.52;11.43;;;;;;;3.87;73.69;98733.38;5004263;28;20114;-81
2022/12/01 00:03:30;;;;;;;19.48;9.98;;;;;;;3.94;74.99;98742.22;5004264;28;20038;-81
2022/12/01 00:06:03;;;;;;;20.00;10.27;;;;;;;4.02;76.11;98747.56;5002562;28;20033;-80
2022/12/01 00:08:30;;;;;;;17.35;9.30;;;;;;;4.07;76.03;98743.69;5004793;28;20030;-81
2022/12/01 00:11:06;;;;;;;21.08;10.65;;;;;;;4.10;75.59;98743.41;5000651;28;20038;-80
2022/12/01 00:13:33;;;;;;;17.88;8.93;;;;;;;4.02;74.81;98737.16;5006099;28;20033;-81
2022/12/01 00:16:29;;;;;;;18.30;10.05;;;;;;;3.97;74.03;98731.59;5007138;28;20100;-80
2022/12/01 00:18:55;;;;;;;19.67;9.82;;;;;;;4.00;75.07;98744.25;4994175;28;20054;-81
2022/12/01 00:21:23;;;;;;;19.55;9.93;;;;;;;4.10;75.72;98733.03;5003881;28;20516;-81
2022/12/01 00:23:54;;;;;;;19.60;10.02;;;;;;;4.07;75.69;98741.91;5004270;28;20037;-81
2022/12/01 00:26:21;;;;;;;20.42;9.25;;;;;;;4.06;74.59;98737.69;5005154;28;20034;-81
2022/12/01 00:28:53;;;;;;;19.02;10.07;;;;;;;3.97;74.90;98735.97;5002940;28;20123;-82
2022/12/01 00:31:19;;;;;;;20.90;10.63;;;;;;;3.98;75.78;98735.81;5003638;28;20050;-81
2022/12/01 00:33:45;;;;;;;18.33;10.18;;;;;;;3.94;75.36;98731.84;5000179;28;20061;-81
2022/12/01 00:36:11;;;;;;;22.05;10.70;;;;;;;4.00;75.29;98731.28;5002677;28;20736;-81
2022/12/01 00:38:37;;;;;;;19.42;9.85;;;;;;;4.03;75.36;98737.97;5004187;28;20072;-82
2022/12/01 00:41:03;;;;;;;18.20;9.82;;;;;;;4.09;74.86;98747.81;5003472;28;20113;-82
2022/12/01 00:43:29;;;;;;;18.30;8.65;;;;;;;4.06;73.99;98739.47;5003702;28;20030;-81
2022/12/01 00:45:55;;;;;;;19.27;9.95;;;;;;;4.08;74.81;98740.13;5001510;28;20038;-81
2022/12/01 00:48:21;;;;;;;19.25;10.20;;;;;;;4.07;74.99;98730.72;5003867;28;20034;-81
2022/12/01 00:50:50;;;;;;;20.48;10.13;;;;;;;4.05;74.93;98745.63;5002893;28;20061;-81
2022/12/01 00:53:16;;;;;;;19.65;9.77;;;;;;;4.11;75.07;98747.66;5003373;28;20037;-81
2022/12/01 00:55:41;;;;;;;18.67;9.27;;;;;;;4.19;76.69;98745.16;5003732;28;20508;-81
2022/12/01 00:58:07;;;;;;;18.42;9.15;;;;;;;4.26;76.30;98743.63;5001657;28;20120;-81
2022/12/01 01:00:33;;;;;;;23.90;10.40;;;;;;;4.24;75.02;98745.53;5002774;28;20038;-81
2022/12/01 01:02:59;;;;;;;20.95;10.52;;;;;;;4.15;74.36;98736.84;5002658;28;20030;-81
2022/12/01 01:05:24;;;;;;;17.55;9.30;;;;;;;4.16;74.85;98742.84;5002667;28;20038;-81
2022/12/01 01:07:50;;;;;;;20.23;9.48;;;;;;;4.06;75.29;98747.25;5000753;28;20061;-81
2022/12/01 01:10:15;;;;;;;19.48;10.10;;;;;;;4.08;76.63;98750.50;5000122;28;20030;-81
2022/12/01 01:12:41;;;;;;;18.92;9.32;;;;;;;4.11;77.39;98745.06;5002382;28;20039;-81
2022/12/01 01:15:07;;;;;;;17.35;9.68;;;;;;;4.25;76.54;98744.56;5004802;28;20054;-81
2022/12/01 01:17:33;;;;;;;19.48;9.75;;;;;;;4.26;74.81;98746.22;5003576;28;20038;-81
2022/12/01 01:19:58;;;;;;;20.38;10.35;;;;;;;4.29;74.88;98751.13;5001336;28;20094;-81
2022/12/01 01:22:24;;;;;;;20.38;9.45;;;;;;;4.25;75.99;98747.16;5002578;28;20536;-81
2022/12/01 01:24:50;;;;;;;19.50;9.68;;;;;;;4.19;75.03;98750.34;5002804;28;20496;-81
2022/12/01 01:27:15;;;;;;;19.10;10.27;;;;;;;4.17;75.14;98754.88;5002620;28;20065;-81
2022/12/01 01:29:41;;;;;;;19.83;10.20;;;;;;;4.12;75.68;98757.88;5003098;28;20022;-81
2022/12/01 01:32:07;;;;;;;21.05;10.85;;;;;;;4.04;75.29;98750.00;5001172;28;20087;-81
2022/12/01 01:34:33;;;;;;;21.08;9.88;;;;;;;4.07;76.07;98752.28;5001554;28;20030;-81
2022/12/01 01:36:58;;;;;;;17.20;9.35;;;;;;;4.04;75.71;98755.19;5003422;28;20045;-81
2022/12/01 01:39:24;;;;;;;21.63;10.18;;;;;;;4.02;76.28;98763.13;5003062;28;20034;-81
2022/12/01 01:41:49;;;;;;;20.52;9.82;;;;;;;3.98;75.61;98761.75;5001953;28;20033;-81
2022/12/01 01:44:46;;;;;;;19.42;9.73;;;;;;;4.02;76.48;98762.31;5000907;28;20113;-80
2022/12/01 01:47:14;;;;;;;24.10;11.07;;;;;;;3.98;75.96;98756.56;5004054;28;20085;-81
2022/12/01 01:49:41;;;;;;;20.95;10.25;;;;;;;4.12;77.86;98759.66;5001077;28;20029;-81
2022/12/01 01:52:07;;;;;;;18.48;9.65;;;;;;;4.09;76.61;98755.59;4999297;28;20100;-81
2022/12/01 01:54:41;;;;;;;19.10;9.98;;;;;;;4.09;75.94;98758.19;5001649;28;20098;-81
2022/12/01 01:57:11;;;;;;;22.58;11.70;;;;;;;4.06;75.48;98758.44;5000866;28;20033;-81
2022/12/01 01:59:48;;;;;;;20.48;10.07;;;;;;;4.05;76.26;98761.19;5000529;28;20058;-81
2022/12/01 02:02:13;;;;;;;20.88;10.23;;;;;;;4.10;77.89;98761.59;5003801;28;20034;-81
2022/12/01 02:04:45;;;;;;;24.38;10.88;;;;;;;4.06;76.41;98761.03;5002323;28;20041;-81
2022/12/01 02:07:16;;;;;;;19.17;10.00;;;;;;;4.11;77.14;98760.63;4998395;28;20048;-81
2022/12/01 02:09:42;;;;;;;21.17;10.10;;;;;;;4.01;76.01;98758.88;4999602;28;20374;-81
2022/12/01 02:12:34;;;;;;;19.42;9.85;;;;;;;4.07;77.02;98757.50;5001217;28;20045;-81
2022/12/01 02:15:23;;;;;;;20.48;9.90;;;;;;;4.12;77.18;98762.25;4987759;28;20057;-81
2022/12/01 02:18:13;;;;;;;22.38;11.05;;;;;;;3.99;76.44;98747.00;5003187;28;20061;-81
2022/12/01 02:21:22;;;;;;;21.23;10.93;;;;;;;4.01;77.19;98740.69;5002534;28;20025;-79
2022/12/01 02:24:25;;;;;;;19.00;9.57;;;;;;;4.05;77.68;98740.44;5005536;28;20062;-81
2022/12/01 02:26:58;;;;;;;22.02;11.00;;;;;;;4.00;77.75;98739.06;5005655;28;20049;-81
2022/12/01 02:30:15;;;;;;;22.90;9.80;;;;;;;4.06;78.16;98748.06;5006136;28;20034;-81
2022/12/01 02:33:23;;;;;;;19.60;10.05;;;;;;;4.15;77.97;98739.44;5005469;28;20078;-81
2022/12/01 02:36:16;;;;;;;20.38;10.02;;;;;;;4.15;77.80;98739.44;5006529;28;20038;-81
2022/12/01 02:39:14;;;;;;;19.25;10.02;;;;;;;4.22;78.20;98743.09;5005734;28;20050;-81
2022/12/01 02:41:51;;;;;;;19.35;9.65;;;;;;;4.30;78.85;98750.97;5005922;28;20045;-81
2022/12/01 02:44:26;;;;;;;19.45;9.13;;;;;;;4.23;76.72;98743.91;5004475;28;20034;-81
2022/12/01 02:47:01;;;;;;;20.38;10.18;;;;;;;4.19;77.02;98752.94;5006319;28;20125;-81
2022/12/01 02:49:36;;;;;;;19.92;10.15;;;;;;;4.23;77.32;98746.50;5004997;28;20045;-81
2022/12/01 02:52:05;;;;;;;21.02;9.85;;;;;;;4.22;77.53;98748.28;5005448;28;20484;-81
2022/12/01 02:54:33;;;;;;;20.35;9.52;;;;;;;4.13;76.48;98743.94;5005777;28;20034;-81
2022/12/01 02:56:59;;;;;;;20.15;10.43;;;;;;;4.09;77.01;98734.00;5004759;28;20112;-80
2022/12/01 02:59:25;;;;;;;19.23;9.50;;;;;;;3.98;77.20;98728.03;5005284;28;20462;-80
2022/12/01 03:02:16;;;;;;;21.75;10.40;;;;;;;4.03;77.55;98733.59;5008197;28;20073;-80
2022/12/01 03:04:57;;;;;;;20.13;10.40;;;;;;;4.12;77.72;98731.91;5006389;28;20042;-81
2022/12/01 03:07:40;;;;;;;18.98;10.63;;;;;;;4.20;78.71;98733.81;5005197;28;20142;-81
2022/12/01 03:10:34;;;;;;;25.73;11.10;;;;;;;4.25;76.79;98721.19;5004682;28;20422;-81
2022/12/01 03:13:31;;;;;;;18.95;9.32;;;;;;;4.23;77.95;98725.72;5005911;28;20030;-81
2022/12/01 03:16:44;;;;;;;21.73;10.07;;;;;;;4.30;77.68;98719.00;5003238;28;20045;-81
2022/12/01 03:19:33;;;;;;;21.67;9.05;;;;;;;4.37;77.29;98722.66;5009157;28;20096;-81
2022/12/01 03:22:14;;;;;;;18.88;9.02;;;;;;;4.41;77.57;98720.59;5003257;28;20030;-81
2022/12/01 03:24:46;;;;;;;24.05;10.63;;;;;;;4.32;76.37;98722.28;5007341;28;20604;-80
2022/12/01 03:27:16;;;;;;;22.15;10.70;;;;;;;4.20;76.89;98715.66;5003794;28;20069;-81
2022/12/01 03:29:51;;;;;;;20.90;9.57;;;;;;;4.28;77.91;98728.72;5002788;28;20075;-81
2022/12/01 03:32:40;;;;;;;21.02;9.40;;;;;;;4.33;78.32;98716.13;5003596;28;20041;-81
2022/12/01 03:35:40;;;;;;;21.90;10.13;;;;;;;4.35;77.77;98716.78;5005456;28;20030;-81
2022/12/01 03:38:20;;;;;;;19.55;10.18;;;;;;;4.35;78.89;98715.97;5004213;28;20065;-81
2022/12/01 03:40:49;;;;;;;22.67;10.57;;;;;;;4.31;78.20;98720.63;5005017;28;20417;-80
2022/12/01 03:43:25;;;;;;;22.23;10.75;;;;;;;4.30;78.59;98714.63;5003958;28;20034;-81
2022/12/01 03:46:30;;;;;;;22.30;10.73;;;;;;;4.44;78.62;98720.31;5001905;28;20100;-81
2022/12/01 03:48:56;;;;;;;18.70;9.45;;;;;;;4.41;77.96;98721.41;5003978;28;20034;-81
2022/12/01 03:51:46;;;;;;;20.67;10.00;;;;;;;4.38;77.30;98715.66;5002776;28;20517;-81
2022/12/01 03:54:43;;;;;;;19.95;9.82;;;;;;;4.37;77.53;98714.84;5003911;28;20116;-81
2022/12/01 03:57:14;;;;;;;19.67;10.30;;;;;;;4.44;77.57;98718.53;5002697;28;20034;-81
2022/12/01 03:59:42;;;;;;;19.13;9.30;;;;;;;4.39;78.38;98717.34;5005920;28;20069;-81
2022/12/01 04:02:08;;;;;;;22.75;10.35;;;;;;;4.42;78.26;98723.03;5004338;28;20603;-81
2022/12/01 04:04:34;;;;;;;20.08;9.93;;;;;;;4.42;78.32;98725.63;5005748;28;20037;-81
2022/12/01 04:06:59;;;;;;;19.98;9.90;;;;;;;4.41;77.87;98724.00;5005114;28;20061;-81
2022/12/01 04:09:25;;;;;;;16.92;9.57;;;;;;;4.45;78.11;98727.13;5002224;28;20092;-83
2022/12/01 04:14:35;;;;;;;18.20;10.27;;;;;;;4.31;77.78;98728.41;5005513;28;20360;-81
2022/12/01 04:17:00;;;;;;;18.75;10.02;;;;;;;4.23;78.45;98728.31;5003483;28;20034;-81
2022/12/01 04:19:26;;;;;;;22.77;10.13;;;;;;;4.26;79.34;98728.06;5002904;28;20130;-81
2022/12/01 04:21:52;;;;;;;20.80;9.90;;;;;;;4.20;78.10;98724.25;5003881;28;20113;-82
2022/12/01 04:24:18;;;;;;;20.33;10.05;;;;;;;4.24;78.84;98720.38;5005935;28;20091;-81
2022/12/01 04:26:44;;;;;;;21.63;9.57;;;;;;;4.24;78.30;98723.00;5003714;28;20477;-81
2022/12/01 04:29:11;;;;;;;20.15;10.10;;;;;;;4.21;78.35;98722.47;5001882;28;20108;-81
2022/12/01 04:31:37;;;;;;;20.88;9.75;;;;;;;4.23;78.44;98720.53;5002911;28;20497;-81
2022/12/01 04:34:03;;;;;;;17.85;9.50;;;;;;;4.23;78.30;98717.94;5003518;28;20034;-82
2022/12/01 04:36:31;;;;;;;19.70;9.85;;;;;;;4.34;78.83;98717.75;5003926;28;20063;-81
2022/12/01 04:38:57;;;;;;;18.60;10.60;;;;;;;4.35;77.97;98721.97;5004369;28;20086;-81
2022/12/01 04:41:23;;;;;;;21.60;10.07;;;;;;;4.41;78.61;98725.78;5003434;28;20037;-81
2022/12/01 04:43:51;;;;;;;19.88;9.60;;;;;;;4.45;78.97;98722.75;5003759;28;20032;-81
2022/12/01 04:46:16;;;;;;;19.70;10.02;;;;;;;4.51;78.66;98719.56;5003352;28;20033;-81
2022/12/01 04:48:42;;;;;;;20.85;10.48;;;;;;;4.54;78.08;98713.25;5003340;28;20379;-81
2022/12/01 04:51:08;;;;;;;18.90;10.32;;;;;;;4.57;78.14;98724.19;5002373;28;20499;-81
2022/12/01 04:53:35;;;;;;;18.48;9.15;;;;;;;4.60;78.14;98717.88;5003144;28;20032;-81
2022/12/01 04:56:03;;;;;;;19.92;9.02;;;;;;;4.63;78.19;98714.19;5005346;28;20065;-80
2022/12/01 04:58:30;;;;;;;19.50;10.50;;;;;;;4.60;78.04;98719.66;5002539;28;20038;-80
2022/12/01 05:01:05;;;;;;;20.65;9.23;;;;;;;4.60;78.36;98714.47;5003369;28;20370;-81
2022/12/01 05:03:31;;;;;;;21.27;9.77;;;;;;;4.61;78.20;98716.91;5003909;28;20037;-80
2022/12/01 05:06:15;;;;;;;18.92;9.48;;;;;;;4.51;77.97;98724.78;5001722;28;20026;-81
2022/12/01 05:08:41;;;;;;;18.02;9.63;;;;;;;4.45;78.78;98722.75;5001118;28;20030;-81
2022/12/01 05:11:10;;;;;;;19.73;9.35;;;;;;;4.50;79.12;98730.94;5000308;28;20029;-81
2022/12/01 05:13:39;;;;;;;18.75;9.50;;;;;;;4.55;79.16;98725.28;4999369;28;20061;-81
2022/12/01 05:16:13;;;;;;;21.35;10.57;;;;;;;4.43;78.92;98724.66;5002082;28;20501;-81
2022/12/01 05:18:39;;;;;;;17.90;9.23;;;;;;;4.45;79.20;98735.75;5017478;28;20026;-81
2022/12/01 05:21:08;;;;;;;15.88;9.10;;;;;;;4.48;78.91;98727.66;5004015;28;20538;-81
2022/12/01 05:23:36;;;;;;;24.20;10.73;;;;;;;4.45;78.57;98733.16;5002297;28;20512;-83
2022/12/01 05:26:06;;;;;;;20.23;9.32;;;;;;;4.48;78.75;98727.66;5003261;28;20030;-81
2022/12/01 05:28:32;;;;;;;19.10;9.13;;;;;;;4.46;78.86;98723.56;5002817;28;20045;-81
2022/12/01 05:30:58;;;;;;;19.80;9.85;;;;;;;4.42;78.26;98717.03;5000776;28;20037;-81
2022/12/01 05:33:27;;;;;;;17.88;9.43;;;;;;;4.45;78.58;98721.94;5003197;28;20038;-81
2022/12/01 05:35:53;;;;;;;19.52;9.55;;;;;;;4.49;78.37;98718.06;5002729;28;20037;-81
2022/12/01 05:38:20;;;;;;;18.80;9.70;;;;;;;4.52;78.77;98720.41;4998986;28;20038;-81
2022/12/01 05:40:54;;;;;;;21.83;10.02;;;;;;;4.59;78.31;98724.03;5001649;28;20520;-81
2022/12/01 05:43:22;;;;;;;19.45;9.38;;;;;;;4.61;77.55;98721.28;5003354;28;20112;-81
2022/12/01 05:45:48;;;;;;;26.25;11.10;;;;;;;4.47;78.28;98714.81;5002532;28;20046;-81
2022/12/01 05:48:16;;;;;;;16.95;9.00;;;;;;;4.43;78.56;98703.06;5006295;28;20038;-82
2022/12/01 05:50:42;;;;;;;20.60;9.55;;;;;;;4.47;79.13;98697.44;5001875;28;20030;-81
2022/12/01 05:53:11;;;;;;;21.13;10.52;;;;;;;4.48;78.97;98706.88;5002739;28;20035;-82
2022/12/01 05:55:37;;;;;;;18.20;9.95;;;;;;;4.50;78.67;98697.16;5002136;28;20036;-81
2022/12/01 05:58:03;;;;;;;18.20;9.52;;;;;;;4.49;79.02;98703.31;5005358;28;20030;-81
2022/12/01 06:00:28;;;;;;;17.75;9.00;;;;;;;4.52;78.88;98695.22;5005116;28;20570;-81
2022/12/01 06:02:54;;;;;;;23.73;10.13;;;;;;;4.47;78.79;98702.63;5002761;28;20538;-81
2022/12/01 06:05:19;;;;;;;18.30;9.60;;;;;;;4.56;79.11;98712.16;5001901;28;20109;-81
2022/12/01 06:07:45;;;;;;;19.63;9.13;;;;;;;4.61;79.14;98713.50;5001837;28;20109;-81
2022/12/01 06:10:11;;;;;;;19.95;10.00;;;;;;;4.60;79.04;98711.84;4997411;28;20030;-81
2022/12/01 06:12:37;;;;;;;17.58;9.25;;;;;;;4.66;79.38;98713.88;5001808;28;20061;-81
2022/12/01 06:15:05;;;;;;;20.85;10.13;;;;;;;4.55;78.17;98707.91;5002824;28;20648;-81
2022/12/01 06:17:31;;;;;;;19.58;9.07;;;;;;;4.46;78.03;98719.19;5000112;28;20080;-81
2022/12/01 06:19:57;;;;;;;19.95;10.07;;;;;;;4.45;79.02;98727.94;5002438;28;20046;-81
2022/12/01 06:22:23;;;;;;;16.58;8.98;;;;;;;4.38;79.35;98726.91;5001202;28;20033;-81
2022/12/01 06:24:48;;;;;;;22.98;10.20;;;;;;;4.23;78.37;98725.72;5001527;28;20141;-81
2022/12/01 06:27:14;;;;;;;14.80;8.60;;;;;;;4.21;79.67;98720.69;5001741;28;20056;-82
2022/12/01 06:29:39;;;;;;;21.02;10.02;;;;;;;4.34;80.02;98720.34;4999345;28;20030;-82
2022/12/01 06:32:05;;;;;;;17.70;8.77;;;;;;;4.41;79.94;98733.56;4997304;28;20121;-80
2022/12/01 06:34:30;;;;;;;24.13;10.77;;;;;;;4.32;78.90;98722.28;5001914;28;20038;-81
2022/12/01 06:36:56;;;;;;;16.75;9.15;;;;;;;4.33;79.49;98723.09;5002372;28;20120;-81
2022/12/01 06:39:21;;;;;;;18.10;9.48;;;;;;;4.37;80.24;98721.81;5001473;28;20121;-81
2022/12/01 06:41:47;;;;;;;18.30;8.68;;;;;;;4.33;79.81;98734.31;5001977;28;20115;-82
2022/12/01 06:44:13;;;;;;;18.55;9.18;;;;;;;4.38;80.55;98741.63;5002627;28;20037;-82
2022/12/01 06:46:38;;;;;;;15.88;8.80;;;;;;;4.30;80.23;98722.41;5002478;28;20118;-82
2022/12/01 06:49:04;;;;;;;22.48;10.02;;;;;;;4.44;80.02;98743.69;5003163;28;20034;-82
2022/12/01 06:51:32;;;;;;;21.20;10.13;;;;;;;4.45;79.65;98737.53;5001074;28;20429;-82
2022/12/01 06:53:58;;;;;;;21.55;10.43;;;;;;;4.48;78.99;98743.22;5001034;28;20073;-82
2022/12/01 06:56:24;;;;;;;18.88;9.90;;;;;;;4.47;79.20;98741.59;5000449;28;20034;-81
2022/12/01 06:58:51;;;;;;;18.50;9.25;;;;;;;4.50;78.33;98741.31;4999944;28;20056;-81
2022/12/01 07:01:18;;;;;;;21.38;9.82;;;;;;;4.40;78.25;98745.75;5000772;28;20651;-82
2022/12/01 07:03:48;;;;;;;18.50;10.20;;;;;;;4.45;78.14;98738.34;5003068;28;20057;-81
2022/12/01 07:06:14;;;;;;;19.90;9.70;;;;;;;4.41;78.20;98741.38;5001130;28;20038;-82
2022/12/01 07:08:40;;;;;;;21.25;9.73;;;;;;;4.43;78.92;98739.44;5006710;28;20038;-82
2022/12/01 07:11:11;;;;;;;17.77;9.43;;;;;;;4.46;79.39;98744.34;4985852;28;20030;-81
2022/12/01 07:13:38;;;;;;;;;;;;;;;4.49;78.75;98749.25;5006698;28;20042;-82
2022/12/01 07:16:05;;;;;;;17.77;8.70;;;;;;;4.44;78.23;98747.09;5006616;28;19914;-82
2022/12/01 07:18:33;;;;;;;19.50;9.52;;;;;;;4.44;78.91;98752.28;5002128;28;20141;-82
2022/12/01 07:21:04;;;;;;;20.02;9.80;;;;;;;4.42;78.74;98746.41;5003290;28;20034;-82
2022/12/01 07:23:30;;;;;;;20.30;8.77;;;;;;;4.44;78.76;98741.09;5003535;28;20373;-82
2022/12/01 07:26:00;;;;;;;16.05;8.95;;;;;;;4.46;78.59;98752.16;5001529;28;20034;-82
2022/12/01 07:28:27;;;;;;;19.67;9.52;;;;;;;4.35;79.16;98754.94;5006131;28;20049;-82
2022/12/01 07:30:53;;;;;;;20.58;9.13;;;;;;;4.27;79.46;98750.47;5002061;28;20042;-82
2022/12/01 07:33:18;;;;;;;18.27;9.18;;;;;;;4.31;79.88;98751.78;5002757;28;20164;-82
2022/12/01 07:35:44;;;;;;;20.60;9.70;;;;;;;4.30;79.85;98750.16;5003185;28;20091;-82
2022/12/01 07:38:09;;;;;;;20.38;9.75;;;;;;;4.27;79.30;98756.47;4999436;28;20489;-82
2022/12/01 07:40:35;;;;;;;20.38;10.55;;;;;;;4.26;79.94;98754.84;5001078;28;20042;-81
2022/12/01 07:43:00;;;;;;;21.83;10.75;;;;;;;4.27;80.36;98753.06;5004549;28;20026;-81
2022/12/01 07:45:26;;;;;;;22.45;10.52;;;;;;;4.35;80.64;98753.16;5003746;28;20060;-82
2022/12/01 07:47:53;;;;;;;21.15;10.50;;;;;;;4.30;79.93;98763.16;5001835;28;20027;-81
2022/12/01 07:50:19;;;;;;;21.13;11.18;;;;;;;4.35;80.20;98762.72;4998514;28;20397;-82
2022/12/01 07:52:49;;;;;;;20.90;10.55;;;;;;;4.40;79.16;98761.34;5002573;28;20034;-82
2022/12/01 07:55:15;;;;;;;24.47;11.27;;;;;;;4.53;80.51;98759.22;5004864;28;20501;-81
2022/12/01 07:57:40;;;;;;;22.40;11.07;;;;;;;4.51;79.25;98750.75;5002941;28;20308;-81
2022/12/01 08:00:07;;;;;;;24.33;11.68;;;;;;;4.51;78.21;98747.34;5004677;28;20068;-81
2022/12/01 08:02:32;;;;;;;20.17;10.73;;;;;;;4.45;78.02;98751.34;5003751;28;20386;-81
2022/12/01 08:04:58;;;;;;;22.98;11.48;;;;;;;4.44;77.16;98751.47;5002962;28;20030;-81
2022/12/01 08:07:24;;;;;;;22.67;10.63;;;;;;;4.39;77.56;98753.69;5003631;28;20037;-81
2022/12/01 08:09:49;;;;;;;21.77;10.77;;;;;;;4.37;77.69;98758.19;5001271;28;20041;-82
2022/12/01 08:12:15;;;;;;;21.70;11.20;;;;;;;4.19;78.25;98758.13;5001528;28;20064;-82
2022/12/01 08:14:41;;;;;;;24.90;12.48;;;;;;;4.28;78.79;98752.09;5004924;28;20108;-82
2022/12/01 08:17:07;;;;;;;23.08;10.98;;;;;;;4.35;78.05;98750.56;5004897;28;20030;-82
2022/12/01 08:19:32;;;;;;;18.50;10.18;;;;;;;4.46;77.84;98747.75;5002090;28;20034;-81
2022/12/01 08:21:58;;;;;;;24.30;11.45;;;;;;;4.39;76.08;98744.13;5001259;28;20037;-81
2022/12/01 08:24:24;;;;;;;21.45;10.88;;;;;;;4.46;77.68;98747.75;5000492;28;20042;-81
2022/12/01 08:26:50;;;;;;;23.63;11.63;;;;;;;4.43;76.27;98742.84;5003299;28;20034;-81
2022/12/01 08:29:15;;;;;;;21.65;10.93;;;;;;;4.53;77.28;98746.22;5002647;28;20046;-81
2022/12/01 08:31:41;;;;;;;26.98;11.95;;;;;;;4.57;77.67;98737.19;4998990;28;20378;-81
2022/12/01 08:34:07;;;;;;;21.30;11.27;;;;;;;4.54;75.89;98745.25;4998953;28;20046;-82
2022/12/01 08:36:34;;;;;;;21.92;11.00;;;;;;;4.59;75.84;98741.41;5002320;28;20056;-82
2022/12/01 08:39:00;;;;;;;22.92;10.65;;;;;;;4.62;75.43;98744.53;5001362;28;20057;-81
2022/12/01 08:41:27;;;;;;;25.95;11.30;;;;;;;4.61;76.25;98750.69;5000749;28;20584;-81
2022/12/01 08:43:53;;;;;;;25.40;10.98;;;;;;;4.65;75.78;98753.81;5000466;28;20035;-81
2022/12/01 08:46:20;;;;;;;21.83;11.23;;;;;;;4.69;77.12;98749.97;5001474;28;20081;-81
2022/12/01 08:48:46;;;;;;;24.60;11.05;;;;;;;4.73;77.20;98751.28;5002334;28;20030;-81
2022/12/01 08:51:17;;;;;;;22.98;12.02;;;;;;;4.74;76.18;98755.56;5002676;28;20112;-82
2022/12/01 08:53:47;;;;;;;22.73;10.93;;;;;;;4.82;78.08;98750.44;5000101;28;20034;-82
2022/12/01 08:56:30;;;;;;;23.77;11.38;;;;;;;4.80;77.29;98763.59;5001825;28;20112;-81
2022/12/01 08:58:56;;;;;;;24.13;10.00;;;;;;;4.66;75.65;98760.63;5003383;28;20038;-82
2022/12/01 09:01:24;;;;;;;24.40;11.15;;;;;;;4.59;76.80;98760.41;5000086;28;20061;-82
2022/12/01 09:04:03;;;;;;;21.85;11.70;;;;;;;4.49;75.89;98759.63;5003213;28;20045;-81
2022/12/01 09:06:32;;;;;;;24.67;11.95;;;;;;;4.59;76.87;98770.00;5001292;28;20050;-82
2022/12/01 09:08:59;;;;;;;30.75;12.40;;;;;;;4.55;76.66;98774.63;5001234;28;20072;-82
2022/12/01 09:11:25;;;;;;;28.13;12.45;;;;;;;4.72;77.60;98770.44;5004230;28;20033;-82
2022/12/01 09:13:50;;;;;;;22.88;11.57;;;;;;;4.90;77.71;98776.50;5020762;28;20366;-81
2022/12/01 09:16:17;;;;;;;21.63;11.32;;;;;;;5.06;77.26;98784.47;5000961;28;20034;-81
2022/12/01 09:18:46;;;;;;;26.30;10.85;;;;;;;5.18;75.08;98779.88;5000890;28;20034;-82
2022/12/01 09:21:25;;;;;;;23.25;11.82;;;;;;;5.19;73.78;98783.28;5002477;28;20034;-81
2022/12/01 09:23:51;;;;;;;23.35;11.40;;;;;;;5.15;73.44;98787.13;5000584;28;20049;-81
2022/12/01 09:26:18;;;;;;;24.75;11.20;;;;;;;5.34;76.90;98781.81;5000509;28;20843;-81
2022/12/01 09:28:53;;;;;;;20.48;10.77;;;;;;;5.27;73.93;98770.34;4994279;28;20144;-81
2022/12/01 09:31:19;;;;;;;23.80;11.15;;;;;;;5.42;74.53;98779.25;5002579;28;20065;-82
2022/12/01 09:33:45;;;;;;;22.45;11.43;;;;;;;5.63;75.61;98782.34;5001792;28;20072;-80
2022/12/01 09:36:12;;;;;;;23.75;11.82;;;;;;;5.75;73.69;98780.31;4998841;28;20490;-81
2022/12/01 09:38:38;;;;;;;21.95;10.90;;;;;;;5.93;75.08;98777.69;5000430;28;20030;-81
2022/12/01 09:41:18;;;;;;;19.08;10.65;;;;;;;6.01;73.40;98766.53;5001752;28;20066;-81
2022/12/01 09:44:19;;;;;;;26.43;11.93;;;;;;;5.95;72.24;98764.56;5000043;28;20060;-81
2022/12/01 09:47:03;;;;;;;25.27;12.43;;;;;;;6.04;74.48;98763.63;4999212;28;20280;-81
2022/12/01 09:50:03;;;;;;;25.35;11.57;;;;;;;6.24;74.38;98761.59;5001666;28;20042;-81
2022/12/01 09:52:37;;;;;;;22.27;10.75;;;;;;;6.48;74.02;98764.34;4998888;28;21022;-81
2022/12/01 09:55:10;;;;;;;24.10;11.48;;;;;;;6.63;72.20;98754.94;5001037;28;20168;-81
2022/12/01 09:57:39;;;;;;;25.52;11.80;;;;;;;6.80;72.84;98754.97;4999872;28;20100;-81
2022/12/01 10:00:41;;;;;;;24.30;12.07;;;;;;;6.85;72.03;98757.94;4998889;28;20037;-81
2022/12/01 10:03:16;;;;;;;23.77;11.70;;;;;;;6.86;70.40;98749.13;5000935;28;20047;-81
2022/12/01 10:05:46;;;;;;;22.17;10.85;;;;;;;6.69;69.66;98743.88;5000045;28;20076;-81
2022/12/01 10:08:20;;;;;;;19.00;10.57;;;;;;;6.53;70.67;98735.97;4998673;28;20044;-82
2022/12/01 10:10:50;;;;;;;22.30;12.30;;;;;;;6.51;70.70;98737.94;4995821;28;20029;-81
2022/12/01 10:13:25;;;;;;;21.20;10.85;;;;;;;6.69;72.04;98738.66;5002339;28;20049;-81
2022/12/01 10:16:07;;;;;;;25.00;11.32;;;;;;;6.83;72.53;98729.38;4997304;28;20030;-81
2022/12/01 10:18:55;;;;;;;24.95;12.52;;;;;;;7.02;72.20;98743.94;5002914;28;20716;-80
2022/12/01 10:21:35;;;;;;;21.63;10.60;;;;;;;6.79;69.58;98735.09;5001188;28;20037;-81
2022/12/01 10:24:58;;;;;;;23.23;11.13;;;;;;;6.92;72.08;98727.63;4999965;28;20493;-80
2022/12/01 10:28:03;;;;;;;23.17;10.75;;;;;;;6.88;69.83;98724.50;4999149;28;20061;-80
2022/12/01 10:30:28;;;;;;;20.55;10.07;;;;;;;6.93;67.99;98719.63;4999083;28;20053;-80
2022/12/01 10:33:23;;;;;;;22.40;10.48;;;;;;;7.22;69.23;98713.13;4999708;28;20042;-80
2022/12/01 10:35:50;;;;;;;24.52;10.80;;;;;;;7.28;67.85;98709.06;4996148;28;20616;-81
2022/12/01 10:38:30;;;;;;;23.98;12.38;;;;;;;7.32;67.42;98705.97;5000358;28;20107;-81
2022/12/01 10:41:00;;;;;;;22.33;11.57;;;;;;;7.51;67.76;98707.44;5000368;28;20382;-81
2022/12/01 10:43:46;;;;;;;23.20;11.02;;;;;;;7.64;67.41;98699.91;5005210;28;20042;-80
2022/12/01 10:46:40;;;;;;;21.55;11.38;;;;;;;7.91;65.77;98701.28;5000479;28;20030;-80
2022/12/01 10:49:13;;;;;;;24.50;12.00;;;;;;;7.95;64.85;98709.63;5004750;28;20076;-81
2022/12/01 10:51:55;;;;;;;19.27;10.27;;;;;;;7.63;64.45;98700.88;5003297;28;20222;-80
2022/12/01 10:54:30;;;;;;;23.00;10.95;;;;;;;7.52;65.70;98696.00;5004739;28;20062;-81
2022/12/01 10:56:57;;;;;;;20.92;11.15;;;;;;;7.53;66.99;98705.44;5003532;28;20482;-80
2022/12/01 10:59:47;;;;;;;22.98;10.93;;;;;;;7.64;66.41;98706.91;5003293;28;20052;-80
2022/12/01 11:02:19;;;;;;;24.02;11.35;;;;;;;7.69;65.43;98702.81;5007392;28;20030;-80
2022/12/01 11:04:54;;;;;;;23.48;11.90;;;;;;;7.82;65.19;98699.69;5004309;28;20738;-80
2022/12/01 11:07:29;;;;;;;23.80;11.43;;;;;;;7.98;63.83;98699.66;5004804;28;20034;-81
2022/12/01 11:10:23;;;;;;;18.90;10.43;;;;;;;8.18;64.81;98689.63;5003235;28;20041;-81
2022/12/01 11:13:22;;;;;;;21.25;10.43;;;;;;;8.23;65.23;98687.31;5004974;28;20505;-81
2022/12/01 11:16:03;;;;;;;20.60;11.07;;;;;;;8.14;65.51;98698.78;5003351;28;20084;-81
2022/12/01 11:18:34;;;;;;;;;;;;;;;8.15;64.96;98692.56;5002108;28;20029;-81
2022/12/01 11:21:08;;;;;;;20.17;10.20;;;;;;;7.81;63.21;98697.25;5003074;28;20270;-80
2022/12/01 11:23:47;;;;;;;22.63;11.63;;;;;;;7.76;65.02;98685.50;5004178;28;20519;-80
2022/12/01 11:26:24;;;;;;;21.25;11.70;;;;;;;7.72;64.67;98688.59;5002826;28;20034;-81
2022/12/01 11:29:22;;;;;;;22.85;10.65;;;;;;;7.91;66.13;98683.00;5008075;28;20116;-81
2022/12/01 11:31:50;;;;;;;20.73;10.52;;;;;;;8.08;66.65;98689.00;5002651;28;20046;-81
2022/12/01 11:34:27;;;;;;;24.92;12.35;;;;;;;8.09;65.74;98682.78;4999901;28;20042;-81
2022/12/01 11:36:57;;;;;;;20.35;11.60;;;;;;;7.88;64.43;98678.13;5005706;28;20764;-81
2022/12/01 11:39:39;;;;;;;20.92;10.77;;;;;;;8.01;65.64;98686.25;5003143;28;20033;-81
2022/12/01 11:42:25;;;;;;;19.40;11.25;;;;;;;8.01;64.73;98672.38;5002370;28;20662;-81
2022/12/01 11:45:22;;;;;;;19.15;10.38;;;;;;;7.93;62.62;98680.25;5003291;28;20038;-80
2022/12/01 11:48:24;;;;;;;20.52;11.38;;;;;;;7.94;64.57;98671.41;5000358;28;20490;-80
2022/12/01 11:51:05;;;;;;;21.00;10.50;;;;;;;8.15;65.11;98671.66;5005152;28;20038;-80
2022/12/01 11:53:34;;;;;;;;;;;;;;;8.02;63.10;98660.94;5002077;28;20038;-80
2022/12/01 11:56:24;;;;;;;18.77;9.82;;;;;;;7.75;63.90;98673.44;5002254;28;20000;-80